Time;durP1;ratioP1;P1;durP2;ratioP2;P2;SDS_P1;SDS_P2;PMS_P1;PMS_P2;Temp;Humidity;BMP_temperature;BMP_pressure;BME280_temperature;BME280_humidity;BME280_pressure;Samples;Min_cycle;Max_cycle;Signal;HPM_P1;HPM_P2
2021/05/01 00:02:23;;;;;;;12.33;2.57;;;18.30;81.80;;;;;;5003707;28;20334;-73
2021/05/01 00:04:49;;;;;;;10.40;3.07;;;18.30;82.50;;;;;;5007947;28;20224;-74
2021/05/01 00:07:15;;;;;;;13.80;3.23;;;18.10;82.90;;;;;;5005137;28;20252;-71
2021/05/01 00:09:41;;;;;;;7.77;2.37;;;18.00;83.50;;;;;;5014446;28;20220;-72
2021/05/01 00:12:08;;;;;;;9.37;2.53;;;18.00;83.50;;;;;;5013401;28;20244;-71
2021/05/01 00:14:36;;;;;;;8.17;2.70;;;18.00;83.60;;;;;;5013557;28;20549;-72
2021/05/01 00:17:03;;;;;;;10.33;2.63;;;17.90;83.00;;;;;;5005381;28;20185;-72
2021/05/01 00:19:29;;;;;;;10.20;3.00;;;17.90;83.00;;;;;;5005788;28;20281;-72
2021/05/01 00:21:56;;;;;;;9.97;2.60;;;17.90;82.70;;;;;;4998336;28;20197;-72
2021/05/01 00:24:22;;;;;;;10.60;2.67;;;18.00;82.50;;;;;;5016368;28;20196;-71
2021/05/01 00:26:48;;;;;;;9.83;2.60;;;17.90;82.90;;;;;;5020011;28;20184;-72
2021/05/01 00:29:15;;;;;;;11.53;2.70;;;17.90;83.10;;;;;;5004709;28;20580;-74
2021/05/01 00:31:41;;;;;;;14.20;2.27;;;17.80;82.80;;;;;;5005997;28;20247;-71
2021/05/01 00:34:07;;;;;;;12.77;2.70;;;17.80;82.80;;;;;;5003328;28;20275;-71
2021/05/01 00:36:33;;;;;;;11.53;2.30;;;18.00;81.80;;;;;;5005930;28;20662;-71
2021/05/01 00:39:00;;;;;;;12.30;2.83;;;18.00;82.60;;;;;;5004870;28;20680;-73
2021/05/01 00:41:26;;;;;;;9.33;2.20;;;17.90;82.60;;;;;;5003184;28;20201;-73
2021/05/01 00:43:53;;;;;;;8.87;2.30;;;17.90;83.60;;;;;;5003678;28;20219;-73
2021/05/01 00:46:20;;;;;;;9.70;2.33;;;17.90;82.70;;;;;;4988122;28;20219;-72
2021/05/01 00:48:47;;;;;;;7.93;2.90;;;17.90;82.90;;;;;;5005179;28;20233;-74
2021/05/01 00:51:13;;;;;;;8.40;2.57;;;17.90;82.90;;;;;;4993673;28;20196;-73
2021/05/01 00:53:40;;;;;;;9.73;2.30;;;17.90;83.20;;;;;;5009888;28;20192;-73
2021/05/01 00:56:07;;;;;;;13.73;2.83;;;17.90;83.50;;;;;;5005801;28;20269;-73
2021/05/01 00:58:34;;;;;;;11.43;2.67;;;17.80;83.70;;;;;;5004580;28;20216;-71
2021/05/01 01:03:31;;;;;;;12.20;2.77;;;17.80;83.70;;;;;;5002543;28;20192;-73
2021/05/01 01:05:57;;;;;;;10.37;2.60;;;17.70;83.40;;;;;;5007496;28;20185;-74
2021/05/01 01:08:24;;;;;;;9.10;2.47;;;17.60;83.20;;;;;;4990084;28;20963;-74
2021/05/01 01:10:51;;;;;;;8.67;2.23;;;17.60;83.00;;;;;;4987098;28;20275;-73
2021/05/01 01:13:18;;;;;;;12.63;2.70;;;17.70;83.10;;;;;;4995924;28;20232;-73
2021/05/01 01:15:44;;;;;;;11.27;2.80;;;17.70;83.40;;;;;;5004551;28;20806;-73
2021/05/01 01:18:11;;;;;;;6.10;2.00;;;17.60;83.70;;;;;;5017666;28;20215;-73
2021/05/01 01:20:37;;;;;;;9.93;2.27;;;17.60;83.90;;;;;;4988643;28;20635;-73
2021/05/01 01:23:04;;;;;;;8.83;2.77;;;17.60;83.60;;;;;;5009042;28;20204;-74
2021/05/01 01:25:30;;;;;;;9.87;2.37;;;17.60;83.40;;;;;;4992113;28;20185;-74
2021/05/01 01:27:59;;;;;;;14.50;2.70;;;17.60;83.30;;;;;;4988407;28;20733;-73
2021/05/01 01:30:30;;;;;;;14.10;2.93;;;17.70;83.20;;;;;;5011705;28;20661;-73
2021/05/01 01:33:04;;;;;;;12.87;2.50;;;17.80;83.30;;;;;;4984761;28;20193;-73
2021/05/01 01:35:31;;;;;;;16.57;3.47;;;17.80;84.40;;;;;;5005001;28;20207;-74
2021/05/01 01:37:58;;;;;;;13.83;2.90;;;17.70;84.40;;;;;;5005825;28;20279;-73
2021/05/01 01:40:25;;;;;;;13.57;2.80;;;17.60;86.10;;;;;;5021216;28;20197;-73
2021/05/01 01:42:55;;;;;;;10.40;2.67;;;17.50;87.10;;;;;;5019102;28;20543;-73
2021/05/01 01:45:29;;;;;;;10.03;2.47;;;17.30;87.90;;;;;;5005432;28;20189;-73
2021/05/01 01:47:57;;;;;;;11.47;3.20;;;17.30;88.30;;;;;;4997656;28;20634;-74
2021/05/01 01:50:25;;;;;;;11.47;2.60;;;17.40;88.30;;;;;;5002457;28;20197;-73
2021/05/01 01:52:54;;;;;;;12.37;2.90;;;17.40;88.50;;;;;;5002156;28;20192;-74
2021/05/01 01:55:22;;;;;;;9.47;2.87;;;17.40;88.80;;;;;;5003213;28;20195;-72
2021/05/01 01:57:50;;;;;;;12.43;2.80;;;17.50;89.10;;;;;;5019539;28;20217;-73
2021/05/01 02:00:25;;;;;;;12.30;3.23;;;17.60;87.90;;;;;;4985285;28;20685;-73
2021/05/01 02:02:52;;;;;;;12.77;3.30;;;17.70;88.20;;;;;;5004226;28;20964;-73
2021/05/01 02:05:19;;;;;;;10.07;3.00;;;17.70;88.50;;;;;;5003812;28;20248;-73
2021/05/01 02:07:45;;;;;;;10.53;2.93;;;17.70;89.20;;;;;;4988162;28;20324;-72
2021/05/01 02:10:13;;;;;;;16.50;2.90;;;17.60;89.90;;;;;;5020042;28;20236;-73
2021/05/01 02:12:41;;;;;;;23.30;2.93;;;17.50;90.00;;;;;;5001602;28;20188;-74
2021/05/01 02:15:17;;;;;;;12.00;2.90;;;17.60;90.20;;;;;;5008117;28;20232;-72
2021/05/01 02:17:48;;;;;;;14.80;2.80;;;17.70;90.30;;;;;;5003813;28;20200;-72
2021/05/01 02:20:36;;;;;;;11.90;2.80;;;17.80;90.10;;;;;;5003799;28;20204;-71
2021/05/01 02:23:05;;;;;;;9.87;3.00;;;17.90;90.00;;;;;;5001701;28;20201;-72
2021/05/01 02:25:32;;;;;;;14.60;3.03;;;17.90;90.80;;;;;;5005140;28;20197;-74
2021/05/01 02:27:58;;;;;;;14.43;3.07;;;17.60;91.40;;;;;;5003341;28;20217;-74
2021/05/01 02:30:28;;;;;;;15.73;2.93;;;17.60;91.10;;;;;;5006048;28;21000;-74
2021/05/01 02:32:57;;;;;;;13.03;3.17;;;17.70;91.50;;;;;;4984362;28;20263;-74
2021/05/01 02:35:30;;;;;;;12.17;3.13;;;17.80;91.10;;;;;;5000747;28;20209;-73
2021/05/01 02:37:57;;;;;;;14.93;3.10;;;17.90;90.90;;;;;;5004411;28;20195;-73
2021/05/01 02:40:30;;;;;;;17.03;3.33;;;18.00;91.00;;;;;;4988607;28;20204;-73
2021/05/01 02:42:56;;;;;;;15.43;3.40;;;18.00;91.00;;;;;;5002567;28;20188;-73
2021/05/01 02:45:23;;;;;;;15.17;2.93;;;18.00;91.10;;;;;;5018357;28;20553;-70
2021/05/01 02:47:50;;;;;;;14.77;3.17;;;18.00;90.70;;;;;;4991767;28;20217;-70
2021/05/01 02:50:18;;;;;;;14.47;3.17;;;18.20;90.30;;;;;;4985981;28;20196;-73
2021/05/01 02:52:44;;;;;;;16.60;3.13;;;18.30;90.40;;;;;;5003999;28;20694;-72
2021/05/01 02:55:13;;;;;;;15.30;3.20;;;18.20;90.80;;;;;;4991365;28;20315;-73
2021/05/01 02:57:39;;;;;;;13.57;3.07;;;18.20;90.70;;;;;;5007259;28;20669;-71
2021/05/01 03:00:10;;;;;;;13.13;2.60;;;18.10;91.00;;;;;;5007826;28;20661;-73
2021/05/01 03:02:37;;;;;;;16.00;3.00;;;18.00;91.20;;;;;;5006256;28;20204;-74
2021/05/01 03:05:04;;;;;;;13.13;2.77;;;18.00;91.40;;;;;;4994004;28;20205;-73
2021/05/01 03:07:31;;;;;;;7.37;2.43;;;18.00;91.20;;;;;;5021595;28;20756;-73
2021/05/01 03:09:57;;;;;;;16.53;2.90;;;18.10;91.20;;;;;;4989558;28;20862;-73
2021/05/01 03:12:23;;;;;;;16.80;2.87;;;18.10;91.20;;;;;;5005281;28;21081;-73
2021/05/01 03:14:49;;;;;;;16.70;2.97;;;18.10;91.30;;;;;;5022354;28;20200;-72
2021/05/01 03:17:16;;;;;;;15.40;3.27;;;18.10;91.50;;;;;;5005690;28;20196;-73
2021/05/01 03:19:42;;;;;;;10.77;2.40;;;18.10;91.60;;;;;;4992453;28;20200;-72
2021/05/01 03:22:09;;;;;;;9.53;2.50;;;18.10;91.90;;;;;;5004833;28;20323;-73
2021/05/01 03:24:37;;;;;;;12.57;3.00;;;18.10;92.10;;;;;;4991498;28;20193;-73
2021/05/01 03:27:04;;;;;;;9.23;2.70;;;18.00;92.30;;;;;;5004857;28;20626;-73
2021/05/01 03:29:32;;;;;;;10.00;3.00;;;17.90;92.60;;;;;;5005612;28;20948;-73
2021/05/01 03:31:58;;;;;;;11.43;3.00;;;17.90;92.90;;;;;;4988876;28;20193;-73
2021/05/01 03:34:25;;;;;;;12.40;2.90;;;17.90;93.10;;;;;;5005622;28;20216;-73
2021/05/01 03:36:51;;;;;;;13.80;3.10;;;17.90;93.30;;;;;;5003587;28;20212;-73
2021/05/01 03:39:18;;;;;;;8.20;2.20;;;17.90;93.60;;;;;;5005725;28;20741;-74
2021/05/01 03:41:44;;;;;;;12.50;2.70;;;17.90;93.60;;;;;;4994251;28;20526;-73
2021/05/01 03:44:12;;;;;;;12.50;2.67;;;18.00;93.90;;;;;;5021330;28;20197;-72
2021/05/01 03:46:39;;;;;;;9.40;2.97;;;17.90;94.60;;;;;;5004372;28;20239;-73
2021/05/01 03:49:05;;;;;;;12.97;3.00;;;17.90;94.60;;;;;;5005856;28;20211;-73
2021/05/01 03:51:32;;;;;;;12.50;2.97;;;17.90;94.60;;;;;;5012332;28;20221;-73
2021/05/01 03:53:58;;;;;;;11.80;2.73;;;18.00;95.40;;;;;;5007107;28;20653;-70
2021/05/01 03:56:25;;;;;;;14.63;3.80;;;18.10;94.70;;;;;;5006396;28;20200;-73
2021/05/01 03:58:51;;;;;;;11.87;2.67;;;18.20;94.50;;;;;;5003732;28;20200;-73
2021/05/01 04:01:17;;;;;;;15.90;3.33;;;18.20;94.80;;;;;;5022096;28;20251;-74
2021/05/01 04:03:43;;;;;;;17.87;2.77;;;18.20;94.60;;;;;;5001060;28;20200;-70
2021/05/01 04:06:10;;;;;;;16.93;3.10;;;18.20;94.40;;;;;;5005787;28;20589;-71
2021/05/01 04:08:38;;;;;;;16.27;3.00;;;18.20;95.90;;;;;;5005595;28;20213;-71
2021/05/01 04:11:05;;;;;;;9.83;3.00;;;18.20;95.70;;;;;;5007436;28;20191;-71
2021/05/01 04:13:32;;;;;;;10.30;2.90;;;18.30;95.80;;;;;;5001655;28;20181;-73
2021/05/01 04:15:59;;;;;;;10.70;3.17;;;18.20;97.40;;;;;;5003992;28;20188;-73
2021/05/01 04:18:25;;;;;;;10.03;2.53;;;18.20;96.80;;;;;;4988934;28;20189;-70
2021/05/01 04:20:52;;;;;;;11.20;2.30;;;18.30;97.60;;;;;;5023483;28;20192;-72
2021/05/01 04:23:18;;;;;;;14.07;2.90;;;18.30;98.00;;;;;;5017582;28;20245;-70
2021/05/01 04:25:44;;;;;;;13.43;3.57;;;18.30;97.30;;;;;;5023088;28;20199;-70
2021/05/01 04:28:11;;;;;;;13.80;2.90;;;18.30;98.20;;;;;;5005750;28;20204;-70
2021/05/01 04:30:37;;;;;;;12.17;3.60;;;18.30;99.20;;;;;;5006484;28;20199;-72
2021/05/01 04:33:04;;;;;;;10.60;2.90;;;18.50;99.40;;;;;;5018848;28;20197;-72
2021/05/01 04:35:30;;;;;;;11.30;2.63;;;18.90;97.80;;;;;;4990011;28;21003;-70
2021/05/01 04:37:57;;;;;;;14.50;2.73;;;19.20;97.30;;;;;;5006236;28;20594;-72
2021/05/01 04:40:23;;;;;;;14.13;3.10;;;19.10;98.30;;;;;;5001498;28;20196;-73
2021/05/01 04:42:52;;;;;;;14.47;3.73;;;19.20;98.70;;;;;;4986465;28;20487;-72
2021/05/01 04:45:20;;;;;;;12.17;3.13;;;19.60;98.30;;;;;;5001539;28;20205;-70
2021/05/01 04:47:46;;;;;;;13.40;2.80;;;20.10;98.30;;;;;;4986957;28;20248;-72
2021/05/01 04:50:16;;;;;;;11.90;3.00;;;20.40;97.60;;;;;;5000079;28;20193;-72
2021/05/01 04:52:42;;;;;;;11.33;2.90;;;20.40;98.50;;;;;;5002079;28;20522;-72
2021/05/01 04:55:13;;;;;;;17.50;3.30;;;20.30;99.90;;;;;;5005173;28;20183;-73
2021/05/01 04:57:45;;;;;;;9.47;2.90;;;20.70;99.90;;;;;;5017851;28;20224;-73
2021/05/01 05:00:14;;;;;;;15.87;3.07;;;21.20;96.40;;;;;;4987426;28;20192;-72
2021/05/01 05:02:45;;;;;;;13.33;3.07;;;21.50;93.90;;;;;;4999679;28;20655;-73
2021/05/01 05:05:14;;;;;;;21.30;3.33;;;21.60;93.10;;;;;;5004377;28;20287;-73
2021/05/01 05:07:41;;;;;;;19.47;3.27;;;21.20;95.20;;;;;;5020798;28;20223;-73
2021/05/01 05:10:11;;;;;;;13.73;3.10;;;21.00;96.80;;;;;;5002487;28;20657;-73
2021/05/01 05:12:39;;;;;;;12.47;3.00;;;21.10;99.90;;;;;;5017190;28;20235;-73
2021/05/01 05:15:09;;;;;;;13.10;2.67;;;21.30;99.90;;;;;;5002874;28;20336;-70
2021/05/01 05:17:35;;;;;;;11.80;3.07;;;22.00;98.20;;;;;;5020882;28;20197;-70
2021/05/01 05:20:04;;;;;;;14.87;3.00;;;22.50;96.50;;;;;;4987758;28;20247;-71
2021/05/01 05:22:30;;;;;;;12.00;2.80;;;22.80;94.70;;;;;;5004523;28;20221;-74
2021/05/01 05:24:56;;;;;;;17.13;3.53;;;23.00;95.20;;;;;;5017341;28;20211;-73
2021/05/01 05:27:23;;;;;;;11.83;2.97;;;23.00;93.90;;;;;;5015588;28;20248;-73
2021/05/01 05:29:52;;;;;;;14.63;3.17;;;22.90;93.70;;;;;;5004776;28;20193;-73
2021/05/01 05:32:24;;;;;;;13.43;3.13;;;22.50;95.30;;;;;;5005634;28;20196;-73
2021/05/01 05:34:52;;;;;;;9.87;2.80;;;22.20;96.50;;;;;;5002812;28;20288;-70
2021/05/01 05:37:19;;;;;;;10.67;3.10;;;21.90;97.10;;;;;;5006061;28;20200;-73
2021/05/01 05:39:49;;;;;;;12.10;3.50;;;21.80;97.20;;;;;;5004023;28;20192;-73
2021/05/01 05:42:18;;;;;;;15.60;3.00;;;21.90;96.20;;;;;;4984914;28;20189;-73
2021/05/01 05:44:46;;;;;;;13.00;3.00;;;22.10;96.00;;;;;;5004937;28;20673;-73
2021/05/01 05:47:19;;;;;;;14.10;3.17;;;22.20;96.30;;;;;;5001588;28;20219;-73
2021/05/01 05:49:47;;;;;;;16.53;2.80;;;22.20;96.30;;;;;;5004852;28;20766;-72
2021/05/01 05:52:14;;;;;;;11.87;3.20;;;22.20;96.50;;;;;;5002715;28;20200;-73
2021/05/01 05:54:40;;;;;;;10.57;2.90;;;22.30;96.20;;;;;;5004209;28;20188;-73
2021/05/01 05:57:10;;;;;;;14.97;2.90;;;22.70;93.90;;;;;;5016498;28;20547;-72
2021/05/01 05:59:37;;;;;;;9.63;3.17;;;23.00;93.60;;;;;;5021844;28;20273;-71
2021/05/01 06:02:05;;;;;;;18.57;2.83;;;22.80;94.50;;;;;;5000779;28;20291;-71
2021/05/01 06:05:03;;;;;;;16.40;3.17;;;22.60;95.00;;;;;;5020127;28;20280;-71
2021/05/01 06:07:40;;;;;;;10.03;2.97;;;22.50;95.30;;;;;;4997269;28;20527;-73
2021/05/01 06:10:09;;;;;;;14.50;2.67;;;22.50;95.40;;;;;;5004467;28;20610;-72
2021/05/01 06:12:36;;;;;;;16.43;3.47;;;22.50;95.30;;;;;;4998377;28;20189;-73
2021/05/01 06:15:13;;;;;;;15.97;3.03;;;22.60;94.90;;;;;;5000804;28;20666;-73
2021/05/01 06:17:41;;;;;;;11.27;2.90;;;22.70;94.60;;;;;;5001203;28;20724;-73
2021/05/01 06:20:11;;;;;;;12.77;3.40;;;22.80;96.60;;;;;;5001468;28;21038;-73
2021/05/01 06:22:39;;;;;;;12.77;2.87;;;22.80;95.30;;;;;;5005897;28;20271;-73
2021/05/01 06:25:09;;;;;;;16.63;3.30;;;23.00;94.50;;;;;;4989039;28;20706;-73
2021/05/01 06:27:35;;;;;;;14.13;3.50;;;23.10;94.80;;;;;;5003629;28;20693;-74
2021/05/01 06:30:06;;;;;;;18.03;3.60;;;23.10;94.50;;;;;;4988404;28;20184;-74
2021/05/01 06:32:33;;;;;;;13.67;3.03;;;23.10;94.60;;;;;;4986759;28;20258;-73
2021/05/01 06:35:00;;;;;;;12.47;3.57;;;23.20;93.60;;;;;;5005729;28;21646;-72
2021/05/01 06:37:29;;;;;;;14.85;2.95;;;23.40;93.40;;;;;;5004324;28;20223;-72
2021/05/01 06:40:03;;;;;;;15.82;3.13;;;23.60;93.10;;;;;;4988031;28;20224;-70
2021/05/01 06:42:39;;;;;;;9.43;2.83;;;23.70;92.20;;;;;;4991918;28;20200;-71
2021/05/01 06:45:16;;;;;;;13.80;2.80;;;23.80;92.30;;;;;;5006777;28;20196;-71
2021/05/01 06:48:16;;;;;;;20.42;3.30;;;23.80;91.50;;;;;;5002642;28;20215;-71
2021/05/01 06:50:45;;;;;;;15.27;3.30;;;23.90;90.80;;;;;;5000738;28;20207;-71
2021/05/01 06:53:26;;;;;;;18.13;3.60;;;24.00;92.00;;;;;;4998420;28;20193;-70
2021/05/01 06:55:53;;;;;;;21.20;3.40;;;24.40;90.70;;;;;;5016132;28;20185;-71
2021/05/01 06:58:23;;;;;;;15.88;3.50;;;24.80;90.80;;;;;;5003955;28;20291;-71
2021/05/01 07:00:50;;;;;;;13.13;3.05;;;25.00;90.70;;;;;;5003557;28;20617;-71
2021/05/01 07:03:21;;;;;;;22.63;3.90;;;25.10;91.50;;;;;;4988566;28;20197;-71
2021/05/01 07:05:50;;;;;;;11.95;3.15;;;25.20;93.30;;;;;;5007159;28;20197;-70
2021/05/01 07:08:17;;;;;;;14.15;3.20;;;25.40;94.30;;;;;;4987987;28;20268;-70
2021/05/01 07:10:44;;;;;;;19.33;3.50;;;25.20;93.00;;;;;;5004145;28;20525;-71
2021/05/01 07:13:15;;;;;;;15.73;3.10;;;25.60;95.00;;;;;;5007667;28;20200;-71
2021/05/01 07:15:42;;;;;;;21.60;3.50;;;26.00;94.60;;;;;;5007088;28;20724;-71
2021/05/01 07:18:11;;;;;;;18.33;3.85;;;26.00;94.20;;;;;;5005978;28;20189;-70
2021/05/01 07:20:39;;;;;;;13.73;3.33;;;26.00;94.40;;;;;;4987805;28;20223;-70
2021/05/01 07:23:06;;;;;;;8.82;3.25;;;26.10;95.30;;;;;;5007646;28;20216;-70
2021/05/01 07:25:33;;;;;;;14.82;3.55;;;26.20;95.90;;;;;;5018946;28;20280;-71
2021/05/01 07:28:12;;;;;;;23.13;4.03;;;26.20;96.30;;;;;;5006212;28;20700;-71
2021/05/01 07:30:42;;;;;;;11.57;3.55;;;26.40;96.70;;;;;;4999029;28;20189;-72
2021/05/01 07:33:29;;;;;;;12.77;3.40;;;26.40;96.80;;;;;;5005547;28;20191;-71
2021/05/01 07:36:03;;;;;;;18.13;3.00;;;26.40;95.20;;;;;;5004132;28;20698;-72
2021/05/01 07:38:32;;;;;;;16.13;3.42;;;26.20;96.10;;;;;;5006956;28;20196;-71
2021/05/01 07:41:01;;;;;;;14.02;3.88;;;26.40;95.80;;;;;;5015692;28;20284;-72
2021/05/01 07:43:30;;;;;;;17.15;3.75;;;26.20;96.20;;;;;;5004411;28;20191;-72
2021/05/01 07:46:05;;;;;;;14.55;3.03;;;26.20;96.30;;;;;;5000881;28;20196;-72
2021/05/01 07:48:34;;;;;;;14.73;2.80;;;26.50;95.70;;;;;;5014297;28;20255;-72
2021/05/01 07:51:02;;;;;;;13.95;3.00;;;26.70;93.60;;;;;;5004005;28;20223;-71
2021/05/01 07:53:29;;;;;;;15.25;3.42;;;26.80;92.80;;;;;;5003449;28;20211;-71
2021/05/01 07:55:56;;;;;;;12.80;3.22;;;27.00;91.90;;;;;;5019650;28;20197;-71
2021/05/01 07:58:23;;;;;;;15.52;3.55;;;27.20;91.30;;;;;;5018993;28;20674;-72
2021/05/01 08:00:49;;;;;;;23.77;3.63;;;27.20;90.60;;;;;;5004850;28;20192;-71
2021/05/01 08:03:16;;;;;;;15.63;3.45;;;27.40;92.80;;;;;;4997870;28;20235;-72
2021/05/01 08:05:42;;;;;;;18.90;3.80;;;27.50;91.70;;;;;;5001847;28;20190;-71
2021/05/01 08:08:09;;;;;;;12.68;3.30;;;27.60;91.60;;;;;;4998728;28;20293;-71
2021/05/01 08:10:36;;;;;;;13.90;3.30;;;27.50;90.80;;;;;;5004184;28;20188;-70
2021/05/01 08:13:02;;;;;;;14.13;3.38;;;27.50;91.30;;;;;;5003174;28;20271;-71
2021/05/01 08:15:33;;;;;;;13.07;3.50;;;27.90;89.10;;;;;;5000423;28;20181;-70
2021/05/01 08:18:05;;;;;;;11.68;3.10;;;28.00;90.80;;;;;;5000612;28;20199;-71
2021/05/01 08:20:31;;;;;;;15.75;3.40;;;28.00;90.70;;;;;;4999876;28;20532;-72
2021/05/01 08:22:58;;;;;;;17.42;4.00;;;28.20;87.70;;;;;;4999638;28;20774;-74
2021/05/01 08:25:25;;;;;;;16.58;4.40;;;28.30;82.90;;;;;;5007080;28;20197;-74
2021/05/01 08:27:53;;;;;;;12.80;3.55;;;28.40;83.50;;;;;;5002559;28;20205;-75
2021/05/01 08:30:20;;;;;;;19.55;3.10;;;28.50;85.60;;;;;;4987519;28;20510;-74
2021/05/01 08:32:48;;;;;;;10.60;2.88;;;28.60;87.10;;;;;;5001514;28;20228;-74
2021/05/01 08:35:19;;;;;;;23.52;4.03;;;28.70;83.90;;;;;;5001946;28;20555;-74
2021/05/01 08:37:46;;;;;;;16.10;3.40;;;28.70;82.40;;;;;;5003394;28;20216;-75
2021/05/01 08:40:15;;;;;;;17.23;3.72;;;28.90;82.20;;;;;;5005415;28;20276;-75
2021/05/01 08:42:48;;;;;;;20.50;3.30;;;28.90;81.80;;;;;;5001973;28;20220;-73
2021/05/01 08:45:20;;;;;;;13.10;3.65;;;28.90;79.20;;;;;;5002546;28;20215;-73
2021/05/01 09:11:58;;;;;;;20.70;3.70;;;29.10;75.90;;;;;;5034587;28;20571;-69
2021/05/01 09:14:26;;;;;;;22.02;3.80;;;29.90;78.00;;;;;;5017675;28;20283;-69
2021/05/01 09:17:07;;;;;;;19.27;3.55;;;29.80;79.10;;;;;;5019358;28;20195;-69
2021/05/01 09:19:41;;;;;;;11.63;3.25;;;29.90;76.50;;;;;;5029826;28;20200;-69
2021/05/01 09:22:14;;;;;;;11.13;3.45;;;29.70;77.80;;;;;;5021857;28;20192;-69
2021/05/01 09:24:46;;;;;;;15.52;3.42;;;29.80;78.50;;;;;;5020873;28;20193;-69
2021/05/01 09:27:17;;;;;;;16.15;3.60;;;29.70;76.40;;;;;;5036098;28;20188;-69
2021/05/01 09:29:44;;;;;;;15.73;3.42;;;29.80;78.90;;;;;;5019365;28;20211;-69
2021/05/01 09:32:28;;;;;;;19.55;3.50;;;29.90;76.50;;;;;;5031833;28;20192;-69
2021/05/01 09:34:57;;;;;;;18.25;4.10;;;29.90;75.20;;;;;;5019778;28;20196;-69
2021/05/01 09:37:27;;;;;;;18.35;3.65;;;30.00;75.00;;;;;;5032825;28;20577;-69
2021/05/01 09:39:58;;;;;;;13.50;3.70;;;30.10;75.00;;;;;;5013141;28;20219;-69
2021/05/01 09:42:29;;;;;;;9.70;3.40;;;30.20;74.90;;;;;;5051086;28;20184;-69
2021/05/01 09:45:19;;;;;;;12.98;3.10;;;30.20;74.50;;;;;;5031860;28;20699;-69
2021/05/01 09:47:51;;;;;;;17.10;3.50;;;30.40;73.60;;;;;;5020576;28;20188;-69
2021/05/01 09:50:20;;;;;;;15.57;3.65;;;30.50;72.70;;;;;;5018905;28;20200;-70
2021/05/01 09:53:13;;;;;;;13.73;3.53;;;30.70;73.40;;;;;;5053377;28;20563;-70
2021/05/01 09:55:54;;;;;;;17.08;3.83;;;30.90;71.80;;;;;;5021852;28;20290;-70
2021/05/01 09:58:29;;;;;;;14.00;3.08;;;31.00;72.50;;;;;;5019946;28;20628;-70
2021/05/01 10:01:17;;;;;;;15.90;3.45;;;31.00;68.50;;;;;;5036684;28;20230;-70
2021/05/01 10:03:44;;;;;;;10.30;2.83;;;31.00;69.00;;;;;;5020043;28;20262;-70
2021/05/01 10:06:18;;;;;;;11.40;3.20;;;30.80;68.90;;;;;;5034740;28;20188;-70
2021/05/01 10:08:53;;;;;;;14.80;3.35;;;31.00;65.50;;;;;;5017983;28;20284;-68
2021/05/01 10:11:30;;;;;;;17.38;3.50;;;31.20;65.90;;;;;;5021192;28;20200;-70
2021/05/01 10:13:57;;;;;;;15.38;3.47;;;31.30;66.50;;;;;;5008731;28;20572;-70
2021/05/01 10:16:25;;;;;;;16.70;3.53;;;31.30;67.00;;;;;;5008376;28;20182;-70
2021/05/01 10:19:13;;;;;;;23.25;3.55;;;31.40;67.10;;;;;;5008276;28;20223;-70
2021/05/01 10:21:41;;;;;;;10.80;3.20;;;31.40;65.00;;;;;;5018089;28;20196;-70
2021/05/01 10:24:11;;;;;;;14.52;3.30;;;31.50;66.90;;;;;;5007575;28;20224;-69
2021/05/01 10:26:51;;;;;;;17.00;3.47;;;31.40;67.30;;;;;;5003944;28;20279;-69
2021/05/01 10:29:32;;;;;;;13.32;3.35;;;31.30;68.50;;;;;;4990278;28;20212;-70
2021/05/01 10:31:58;;;;;;;18.90;3.65;;;30.80;68.00;;;;;;5024207;28;20204;-70
2021/05/01 10:34:27;;;;;;;17.60;3.05;;;30.90;67.20;;;;;;5007013;28;20723;-70
2021/05/01 10:37:03;;;;;;;12.07;3.40;;;31.20;65.30;;;;;;5006227;28;20193;-69
2021/05/01 10:39:30;;;;;;;13.43;3.03;;;31.50;63.50;;;;;;5002701;28;20216;-70
2021/05/01 10:42:00;;;;;;;18.80;3.42;;;31.50;64.50;;;;;;5001664;28;20195;-70
2021/05/01 10:44:28;;;;;;;17.45;2.90;;;31.70;62.30;;;;;;5005779;28;20193;-69
2021/05/01 10:47:13;;;;;;;13.73;3.70;;;31.90;62.70;;;;;;5000989;28;20826;-70
2021/05/01 10:49:40;;;;;;;14.85;3.17;;;32.00;63.00;;;;;;5003985;28;20197;-69
2021/05/01 10:52:19;;;;;;;13.60;3.17;;;32.00;61.60;;;;;;5008195;28;20200;-69
2021/05/01 10:55:04;;;;;;;19.60;4.20;;;31.90;60.20;;;;;;5016787;28;20191;-70
2021/05/01 10:57:36;;;;;;;14.40;3.38;;;32.10;59.20;;;;;;5000144;28;20222;-69
2021/05/01 11:00:12;;;;;;;10.65;3.67;;;31.90;61.40;;;;;;4998953;28;20721;-69
2021/05/01 11:02:41;;;;;;;19.95;3.38;;;31.60;64.40;;;;;;4997392;28;20188;-69
2021/05/01 11:05:13;;;;;;;13.55;3.30;;;31.70;64.60;;;;;;5001052;28;20242;-70
2021/05/01 11:08:26;;;;;;;13.15;3.33;;;31.40;64.90;;;;;;4998771;28;20572;-70
2021/05/01 11:10:54;;;;;;;13.20;3.38;;;31.20;66.40;;;;;;4984336;28;20196;-70
2021/05/01 11:13:30;;;;;;;11.90;3.88;;;31.40;64.90;;;;;;4995984;28;20192;-70
2021/05/01 11:16:05;;;;;;;13.60;3.88;;;31.60;68.00;;;;;;4999922;28;20188;-70
2021/05/01 11:18:38;;;;;;;15.30;3.50;;;31.60;67.40;;;;;;4999983;28;20203;-70
2021/05/01 11:21:09;;;;;;;11.02;3.13;;;31.60;67.10;;;;;;5000229;28;20213;-70
2021/05/01 11:23:37;;;;;;;12.82;3.28;;;31.30;66.00;;;;;;4995129;28;20189;-70
2021/05/01 11:26:09;;;;;;;14.88;3.22;;;31.20;66.70;;;;;;5004557;28;20189;-70
2021/05/01 11:28:40;;;;;;;10.10;3.15;;;31.00;68.90;;;;;;5002458;28;20209;-70
2021/05/01 11:31:08;;;;;;;11.48;3.22;;;30.80;64.00;;;;;;5000308;28;20189;-70
2021/05/01 11:33:35;;;;;;;11.07;3.55;;;30.70;67.20;;;;;;4999755;28;20189;-70
2021/05/01 11:36:02;;;;;;;16.15;4.57;;;30.60;68.30;;;;;;5002067;28;20195;-69
2021/05/01 11:38:39;;;;;;;13.63;3.85;;;30.50;66.50;;;;;;5004008;28;20218;-68
2021/05/01 11:41:13;;;;;;;18.80;8.68;;;30.60;67.40;;;;;;4997700;28;20217;-69
2021/05/01 11:43:41;;;;;;;16.10;5.50;;;30.60;67.00;;;;;;4992179;28;20196;-69
2021/05/01 11:46:31;;;;;;;17.17;3.53;;;30.70;64.70;;;;;;5000291;28;20251;-69
2021/05/01 11:49:08;;;;;;;18.33;3.15;;;30.70;63.70;;;;;;4997089;28;20243;-69
2021/05/01 11:51:52;;;;;;;14.75;3.20;;;30.90;64.20;;;;;;4999816;28;20203;-70
2021/05/01 11:54:56;;;;;;;11.93;3.05;;;30.70;64.50;;;;;;5000377;28;20538;-69
2021/05/01 11:57:41;;;;;;;12.02;2.85;;;30.70;63.70;;;;;;4999149;28;20618;-70
2021/05/01 12:00:34;;;;;;;17.92;2.80;;;30.70;65.70;;;;;;4996061;28;20221;-71
2021/05/01 12:03:21;;;;;;;14.35;3.28;;;30.40;67.60;;;;;;4997486;28;20189;-68
2021/05/01 12:06:31;;;;;;;12.25;3.47;;;30.20;67.80;;;;;;4995896;28;20189;-68
2021/05/01 12:09:04;;;;;;;13.15;3.13;;;30.00;67.40;;;;;;5016296;28;20197;-70
2021/05/01 12:11:36;;;;;;;12.05;3.40;;;30.00;69.20;;;;;;5012717;28;20193;-68
2021/05/01 12:14:10;;;;;;;17.67;3.40;;;29.90;66.50;;;;;;4992419;28;20177;-70
2021/05/01 12:16:37;;;;;;;10.18;2.70;;;29.70;64.40;;;;;;4995716;28;20197;-70
2021/05/01 12:19:04;;;;;;;8.15;2.78;;;29.60;63.90;;;;;;4999686;28;20560;-68
2021/05/01 12:21:41;;;;;;;8.85;3.10;;;29.70;65.60;;;;;;4999050;28;20190;-68
2021/05/01 12:24:32;;;;;;;14.43;3.17;;;29.70;63.30;;;;;;4997670;28;20203;-69
2021/05/01 12:26:59;;;;;;;15.45;3.33;;;29.70;66.00;;;;;;4998164;28;20212;-70
2021/05/01 12:29:32;;;;;;;12.82;3.10;;;29.80;65.60;;;;;;5029302;28;20189;-70
2021/05/01 12:32:05;;;;;;;13.50;3.00;;;29.70;66.20;;;;;;4996207;28;20192;-70
2021/05/01 12:34:50;;;;;;;18.45;3.60;;;29.70;67.10;;;;;;4999822;28;20485;-69
2021/05/01 12:37:19;;;;;;;13.60;3.15;;;29.70;66.00;;;;;;4997540;28;20689;-69
2021/05/01 12:39:47;;;;;;;12.77;3.47;;;29.60;65.10;;;;;;4987571;28;20896;-69
2021/05/01 12:42:31;;;;;;;12.23;3.65;;;29.50;65.80;;;;;;4997219;28;20212;-69
2021/05/01 12:44:58;;;;;;;14.70;3.05;;;29.30;67.30;;;;;;4994240;28;20196;-69
2021/05/01 12:47:37;;;;;;;11.27;2.97;;;29.20;67.60;;;;;;4985371;28;20188;-69
2021/05/01 12:50:15;;;;;;;21.02;3.70;;;29.10;66.60;;;;;;4998959;28;20199;-69
2021/05/01 12:52:42;;;;;;;13.23;2.80;;;29.10;67.00;;;;;;4999438;28;20184;-69
2021/05/01 12:55:11;;;;;;;17.60;3.05;;;29.10;67.30;;;;;;4999336;28;20192;-69
2021/05/01 12:57:39;;;;;;;14.77;3.47;;;28.90;68.00;;;;;;4998375;28;20818;-69
2021/05/01 13:00:30;;;;;;;16.35;3.10;;;28.80;70.60;;;;;;4997497;28;20335;-69
2021/05/01 13:03:16;;;;;;;13.48;3.78;;;28.90;67.50;;;;;;5001063;28;20216;-69
2021/05/01 13:05:48;;;;;;;10.05;3.15;;;28.80;70.10;;;;;;4995489;28;20188;-69
2021/05/01 13:08:27;;;;;;;13.52;3.15;;;28.80;67.90;;;;;;5001129;28;20247;-69
2021/05/01 13:10:56;;;;;;;11.52;3.22;;;28.60;67.50;;;;;;5012030;28;21131;-69
2021/05/01 13:13:37;;;;;;;10.88;3.38;;;28.60;67.80;;;;;;4992544;28;20219;-69
2021/05/01 13:16:09;;;;;;;14.57;3.53;;;28.40;70.00;;;;;;4993032;28;20283;-69
2021/05/01 13:19:09;;;;;;;10.77;3.20;;;28.60;69.50;;;;;;4998475;28;20244;-69
2021/05/01 13:21:47;;;;;;;14.32;3.97;;;28.90;71.90;;;;;;4996376;28;20271;-69
2021/05/01 13:24:16;;;;;;;20.63;3.75;;;29.00;72.90;;;;;;4997871;28;20196;-69